sensor_id;sensor_type;location;lat;lon;timestamp;temperature;humidity
52397;DHT22;38322;53.108;6.308;2023-06-10T05:01:40;14.80;99.90
52397;DHT22;38322;53.108;6.308;2023-06-10T05:04:06;14.90;99.90
52397;DHT22;38322;53.108;6.308;2023-06-10T05:06:32;14.90;99.90
52397;DHT22;38322;53.108;6.308;2023-06-10T05:08:58;15.00;99.90
52397;DHT22;38322;53.108;6.308;2023-06-10T05:11:23;15.10;99.90
52397;DHT22;38322;53.108;6.308;2023-06-10T05:13:49;15.20;99.90
52397;DHT22;38322;53.108;6.308;2023-06-10T05:16:15;15.20;99.90
52397;DHT22;38322;53.108;6.308;2023-06-10T05:18:41;15.30;99.90
52397;DHT22;38322;53.108;6.308;2023-06-10T05:21:07;15.30;99.90
52397;DHT22;38322;53.108;6.308;2023-06-10T05:23:33;15.30;99.90
52397;DHT22;38322;53.108;6.308;2023-06-10T05:25:59;15.40;99.90
52397;DHT22;38322;53.108;6.308;2023-06-10T05:28:25;15.40;99.90
52397;DHT22;38322;53.108;6.308;2023-06-10T05:30:51;15.40;99.90
52397;DHT22;38322;53.108;6.308;2023-06-10T05:33:17;15.40;99.90
52397;DHT22;38322;53.108;6.308;2023-06-10T05:35:43;15.50;99.90
52397;DHT22;38322;53.108;6.308;2023-06-10T05:38:08;15.50;99.90
52397;DHT22;38322;53.108;6.308;2023-06-10T05:40:34;15.50;99.90
52397;DHT22;38322;53.108;6.308;2023-06-10T05:43:00;15.60;99.90
52397;DHT22;38322;53.108;6.308;2023-06-10T05:45:27;15.70;99.90
52397;DHT22;38322;53.108;6.308;2023-06-10T05:47:53;15.80;99.90
52397;DHT22;38322;53.108;6.308;2023-06-10T05:50:19;15.80;99.90
52397;DHT22;38322;53.108;6.308;2023-06-10T05:52:44;15.80;99.90
52397;DHT22;38322;53.108;6.308;2023-06-10T05:55:10;15.80;99.90
52397;DHT22;38322;53.108;6.308;2023-06-10T05:57:36;15.80;99.90
52397;DHT22;38322;53.108;6.308;2023-06-10T06:00:03;15.90;99.90
52397;DHT22;38322;53.108;6.308;2023-06-10T06:02:30;15.90;99.90
52397;DHT22;38322;53.108;6.308;2023-06-10T06:04:55;16.00;99.90
52397;DHT22;38322;53.108;6.308;2023-06-10T06:07:21;16.10;99.90
52397;DHT22;38322;53.108;6.308;2023-06-10T06:09:47;16.20;99.90
52397;DHT22;38322;53.108;6.308;2023-06-10T06:12:13;16.20;99.90
52397;DHT22;38322;53.108;6.308;2023-06-10T06:14:39;16.20;99.90
52397;DHT22;38322;53.108;6.308;2023-06-10T06:17:06;16.40;99.90
52397;DHT22;38322;53.108;6.308;2023-06-10T06:19:33;16.40;99.90
52397;DHT22;38322;53.108;6.308;2023-06-10T06:21:59;16.50;99.90
52397;DHT22;38322;53.108;6.308;2023-06-10T06:24:25;16.50;99.90
52397;DHT22;38322;53.108;6.308;2023-06-10T06:26:50;16.50;99.90
52397;DHT22;38322;53.108;6.308;2023-06-10T06:29:17;16.60;99.90
52397;DHT22;38322;53.108;6.308;2023-06-10T06:31:43;16.60;99.90
52397;DHT22;38322;53.108;6.308;2023-06-10T06:34:09;16.70;99.90
52397;DHT22;38322;53.108;6.308;2023-06-10T06:36:35;16.80;99.90
52397;DHT22;38322;53.108;6.308;2023-06-10T06:39:01;16.80;99.90
52397;DHT22;38322;53.108;6.308;2023-06-10T06:41:27;16.90;99.90
52397;DHT22;38322;53.108;6.308;2023-06-10T06:43:54;16.90;99.90
52397;DHT22;38322;53.108;6.308;2023-06-10T06:46:20;17.00;99.90
52397;DHT22;38322;53.108;6.308;2023-06-10T06:48:47;17.10;99.90
52397;DHT22;38322;53.108;6.308;2023-06-10T06:51:12;17.10;99.90
52397;DHT22;38322;53.108;6.308;2023-06-10T06:53:39;17.10;99.90
52397;DHT22;38322;53.108;6.308;2023-06-10T06:56:10;17.10;99.90
52397;DHT22;38322;53.108;6.308;2023-06-10T06:58:36;17.20;99.90
52397;DHT22;38322;53.108;6.308;2023-06-10T07:01:02;17.20;99.90
52397;DHT22;38322;53.108;6.308;2023-06-10T07:03:28;17.30;99.90
52397;DHT22;38322;53.108;6.308;2023-06-10T07:05:54;17.30;99.90
52397;DHT22;38322;53.108;6.308;2023-06-10T07:08:20;17.30;99.90
52397;DHT22;38322;53.108;6.308;2023-06-10T07:10:46;17.40;99.90
52397;DHT22;38322;53.108;6.308;2023-06-10T07:13:12;17.40;99.90
52397;DHT22;38322;53.108;6.308;2023-06-10T07:15:38;17.50;99.90
52397;DHT22;38322;53.108;6.308;2023-06-10T07:18:04;17.60;99.90
52397;DHT22;38322;53.108;6.308;2023-06-10T07:20:30;17.80;99.90
52397;DHT22;38322;53.108;6.308;2023-06-10T07:22:56;17.80;99.90
52397;DHT22;38322;53.108;6.308;2023-06-10T07:25:22;17.90;99.90
52397;DHT22;38322;53.108;6.308;2023-06-10T07:27:49;18.00;99.90
52397;DHT22;38322;53.108;6.308;2023-06-10T07:30:15;18.00;99.90
52397;DHT22;38322;53.108;6.308;2023-06-10T07:32:41;18.10;99.90
52397;DHT22;38322;53.108;6.308;2023-06-10T07:35:09;18.20;99.90
52397;DHT22;38322;53.108;6.308;2023-06-10T07:37:36;18.20;99.90
52397;DHT22;38322;53.108;6.308;2023-06-10T07:40:02;18.30;99.90
52397;DHT22;38322;53.108;6.308;2023-06-10T07:42:28;18.20;99.90
52397;DHT22;38322;53.108;6.308;2023-06-10T07:44:54;18.30;99.90
52397;DHT22;38322;53.108;6.308;2023-06-10T07:47:20;18.40;99.90
52397;DHT22;38322;53.108;6.308;2023-06-10T07:49:46;18.40;99.90
52397;DHT22;38322;53.108;6.308;2023-06-10T07:52:12;18.50;99.90
52397;DHT22;38322;53.108;6.308;2023-06-10T07:54:38;18.60;99.90
52397;DHT22;38322;53.108;6.308;2023-06-10T07:57:04;18.60;99.90
52397;DHT22;38322;53.108;6.308;2023-06-10T07:59:30;18.70;99.90
52397;DHT22;38322;53.108;6.308;2023-06-10T08:01:56;18.80;99.90
52397;DHT22;38322;53.108;6.308;2023-06-10T08:04:21;18.90;99.90
52397;DHT22;38322;53.108;6.308;2023-06-10T08:06:47;19.00;99.90
52397;DHT22;38322;53.108;6.308;2023-06-10T08:09:13;19.10;99.90
52397;DHT22;38322;53.108;6.308;2023-06-10T08:11:39;19.10;99.90
52397;DHT22;38322;53.108;6.308;2023-06-10T08:14:05;19.10;99.90
52397;DHT22;38322;53.108;6.308;2023-06-10T08:16:31;19.20;99.90
52397;DHT22;38322;53.108;6.308;2023-06-10T08:18:57;19.20;99.90
52397;DHT22;38322;53.108;6.308;2023-06-10T08:21:23;19.30;99.90
52397;DHT22;38322;53.108;6.308;2023-06-10T08:23:52;19.40;99.90
52397;DHT22;38322;53.108;6.308;2023-06-10T08:26:19;19.50;99.90
52397;DHT22;38322;53.108;6.308;2023-06-10T08:28:45;19.60;99.90
52397;DHT22;38322;53.108;6.308;2023-06-10T08:31:11;19.70;99.90
52397;DHT22;38322;53.108;6.308;2023-06-10T08:33:37;19.70;99.90
52397;DHT22;38322;53.108;6.308;2023-06-10T08:36:03;19.80;99.90
52397;DHT22;38322;53.108;6.308;2023-06-10T08:38:29;20.00;99.90
52397;DHT22;38322;53.108;6.308;2023-06-10T08:40:58;20.00;99.90
52397;DHT22;38322;53.108;6.308;2023-06-10T08:43:39;20.10;99.90
52397;DHT22;38322;53.108;6.308;2023-06-10T08:46:08;20.10;99.90
52397;DHT22;38322;53.108;6.308;2023-06-10T08:48:35;20.10;99.90
52397;DHT22;38322;53.108;6.308;2023-06-10T08:51:04;20.10;99.90
52397;DHT22;38322;53.108;6.308;2023-06-10T08:53:34;20.20;99.90
52397;DHT22;38322;53.108;6.308;2023-06-10T08:56:04;20.30;99.90
52397;DHT22;38322;53.108;6.308;2023-06-10T08:58:32;20.30;99.90
52397;DHT22;38322;53.108;6.308;2023-06-10T09:00:59;20.30;99.90
52397;DHT22;38322;53.108;6.308;2023-06-10T09:03:25;20.30;99.90
52397;DHT22;38322;53.108;6.308;2023-06-10T09:05:52;20.40;99.90
52397;DHT22;38322;53.108;6.308;2023-06-10T09:08:18;20.40;99.90
52397;DHT22;38322;53.108;6.308;2023-06-10T09:10:44;20.50;99.90
52397;DHT22;38322;53.108;6.308;2023-06-10T09:13:10;20.60;99.90
52397;DHT22;38322;53.108;6.308;2023-06-10T09:15:36;20.70;99.90
52397;DHT22;38322;53.108;6.308;2023-06-10T09:18:02;20.80;99.90
52397;DHT22;38322;53.108;6.308;2023-06-10T09:20:28;20.80;99.90
52397;DHT22;38322;53.108;6.308;2023-06-10T09:22:53;20.90;99.90
52397;DHT22;38322;53.108;6.308;2023-06-10T09:25:34;21.00;99.90
52397;DHT22;38322;53.108;6.308;2023-06-10T09:28:01;21.00;99.90
52397;DHT22;38322;53.108;6.308;2023-06-10T09:30:30;21.10;99.90
52397;DHT22;38322;53.108;6.308;2023-06-10T09:32:58;21.20;99.90
52397;DHT22;38322;53.108;6.308;2023-06-10T09:35:25;21.20;99.90
52397;DHT22;38322;53.108;6.308;2023-06-10T09:37:58;21.30;99.90
52397;DHT22;38322;53.108;6.308;2023-06-10T09:40:25;21.40;99.90
52397;DHT22;38322;53.108;6.308;2023-06-10T09:42:54;21.30;99.90
52397;DHT22;38322;53.108;6.308;2023-06-10T09:45:21;21.40;99.90
52397;DHT22;38322;53.108;6.308;2023-06-10T09:47:51;21.40;99.90
52397;DHT22;38322;53.108;6.308;2023-06-10T09:50:17;21.50;99.90
52397;DHT22;38322;53.108;6.308;2023-06-10T09:52:46;21.50;99.90
52397;DHT22;38322;53.108;6.308;2023-06-10T09:55:13;21.50;99.90
52397;DHT22;38322;53.108;6.308;2023-06-10T09:57:39;21.50;99.90
52397;DHT22;38322;53.108;6.308;2023-06-10T10:00:08;21.80;99.90
52397;DHT22;38322;53.108;6.308;2023-06-10T10:02:47;21.80;99.90
52397;DHT22;38322;53.108;6.308;2023-06-10T10:05:15;21.80;99.90
52397;DHT22;38322;53.108;6.308;2023-06-10T10:07:42;21.90;99.90
52397;DHT22;38322;53.108;6.308;2023-06-10T10:10:08;21.90;99.90
52397;DHT22;38322;53.108;6.308;2023-06-10T10:12:36;22.00;99.90
52397;DHT22;38322;53.108;6.308;2023-06-10T10:15:03;22.10;99.90
52397;DHT22;38322;53.108;6.308;2023-06-10T10:17:32;22.10;99.90
52397;DHT22;38322;53.108;6.308;2023-06-10T10:20:03;22.20;99.90
52397;DHT22;38322;53.108;6.308;2023-06-10T10:22:37;22.30;99.90
52397;DHT22;38322;53.108;6.308;2023-06-10T10:25:11;22.30;99.90
52397;DHT22;38322;53.108;6.308;2023-06-10T10:27:44;22.30;99.90
52397;DHT22;38322;53.108;6.308;2023-06-10T10:30:11;22.40;99.90
52397;DHT22;38322;53.108;6.308;2023-06-10T10:32:46;22.60;99.90
52397;DHT22;38322;53.108;6.308;2023-06-10T10:35:18;22.70;99.90
52397;DHT22;38322;53.108;6.308;2023-06-10T10:37:47;22.70;99.90
52397;DHT22;38322;53.108;6.308;2023-06-10T10:40:13;22.80;99.90
52397;DHT22;38322;53.108;6.308;2023-06-10T10:42:40;22.90;99.90
52397;DHT22;38322;53.108;6.308;2023-06-10T10:45:08;22.90;99.90
52397;DHT22;38322;53.108;6.308;2023-06-10T10:47:34;22.90;99.90
52397;DHT22;38322;53.108;6.308;2023-06-10T10:50:01;22.90;99.90
52397;DHT22;38322;53.108;6.308;2023-06-10T10:52:53;23.00;99.90
52397;DHT22;38322;53.108;6.308;2023-06-10T10:55:20;23.30;99.90
52397;DHT22;38322;53.108;6.308;2023-06-10T10:57:54;23.20;99.90
52397;DHT22;38322;53.108;6.308;2023-06-10T11:02:52;23.50;99.90
52397;DHT22;38322;53.108;6.308;2023-06-10T11:05:35;23.50;99.90
52397;DHT22;38322;53.108;6.308;2023-06-10T11:08:01;23.40;99.90
52397;DHT22;38322;53.108;6.308;2023-06-10T11:10:30;23.30;99.90
52397;DHT22;38322;53.108;6.308;2023-06-10T11:12:57;23.40;99.90
52397;DHT22;38322;53.108;6.308;2023-06-10T11:15:27;23.50;99.90
52397;DHT22;38322;53.108;6.308;2023-06-10T11:26:13;23.80;99.90
52397;DHT22;38322;53.108;6.308;2023-06-10T11:28:42;23.80;99.90
52397;DHT22;38322;53.108;6.308;2023-06-10T11:31:33;23.90;99.90
52397;DHT22;38322;53.108;6.308;2023-06-10T11:34:01;24.00;99.20
52397;DHT22;38322;53.108;6.308;2023-06-10T11:36:29;24.00;99.30
52397;DHT22;38322;53.108;6.308;2023-06-10T11:38:57;24.10;99.90
52397;DHT22;38322;53.108;6.308;2023-06-10T11:41:24;24.20;99.90
52397;DHT22;38322;53.108;6.308;2023-06-10T11:43:52;24.20;99.90
52397;DHT22;38322;53.108;6.308;2023-06-10T11:46:18;24.20;97.70
52397;DHT22;38322;53.108;6.308;2023-06-10T11:48:53;24.20;96.70
52397;DHT22;38322;53.108;6.308;2023-06-10T11:51:19;24.20;96.00
52397;DHT22;38322;53.108;6.308;2023-06-10T11:53:48;24.10;95.50
52397;DHT22;38322;53.108;6.308;2023-06-10T11:56:20;24.20;96.40
52397;DHT22;38322;53.108;6.308;2023-06-10T11:58:53;24.30;96.70
52397;DHT22;38322;53.108;6.308;2023-06-10T12:01:21;24.30;95.70
52397;DHT22;38322;53.108;6.308;2023-06-10T12:03:47;24.50;95.90
52397;DHT22;38322;53.108;6.308;2023-06-10T12:06:13;24.60;95.60
52397;DHT22;38322;53.108;6.308;2023-06-10T12:08:45;24.60;95.60
52397;DHT22;38322;53.108;6.308;2023-06-10T12:11:12;24.80;96.40
52397;DHT22;38322;53.108;6.308;2023-06-10T12:13:45;24.90;97.10
52397;DHT22;38322;53.108;6.308;2023-06-10T12:16:14;24.90;96.90
52397;DHT22;38322;53.108;6.308;2023-06-10T12:18:41;24.90;96.90
52397;DHT22;38322;53.108;6.308;2023-06-10T12:21:24;25.10;96.40
52397;DHT22;38322;53.108;6.308;2023-06-10T12:24:09;25.20;95.40
52397;DHT22;38322;53.108;6.308;2023-06-10T12:26:39;25.20;94.20
52397;DHT22;38322;53.108;6.308;2023-06-10T12:29:19;25.20;94.70
52397;DHT22;38322;53.108;6.308;2023-06-10T12:32:04;25.20;93.90
52397;DHT22;38322;53.108;6.308;2023-06-10T12:34:34;25.20;94.00
52397;DHT22;38322;53.108;6.308;2023-06-10T12:37:02;25.40;94.90
52397;DHT22;38322;53.108;6.308;2023-06-10T12:39:30;25.40;95.30
52397;DHT22;38322;53.108;6.308;2023-06-10T12:41:57;25.40;95.60
52397;DHT22;38322;53.108;6.308;2023-06-10T12:44:29;25.60;95.90
52397;DHT22;38322;53.108;6.308;2023-06-10T12:46:55;25.50;93.90
52397;DHT22;38322;53.108;6.308;2023-06-10T12:49:21;25.60;94.50
52397;DHT22;38322;53.108;6.308;2023-06-10T12:51:47;25.50;92.40
52397;DHT22;38322;53.108;6.308;2023-06-10T12:54:14;25.40;91.90
52397;DHT22;38322;53.108;6.308;2023-06-10T12:56:39;25.50;93.90
52397;DHT22;38322;53.108;6.308;2023-06-10T12:59:05;25.60;92.40
52397;DHT22;38322;53.108;6.308;2023-06-10T13:01:31;25.80;92.10
52397;DHT22;38322;53.108;6.308;2023-06-10T13:03:58;25.80;92.40
52397;DHT22;38322;53.108;6.308;2023-06-10T13:06:25;25.90;93.50
52397;DHT22;38322;53.108;6.308;2023-06-10T13:08:51;25.80;93.10
52397;DHT22;38322;53.108;6.308;2023-06-10T13:11:18;25.80;92.80
52397;DHT22;38322;53.108;6.308;2023-06-10T13:13:44;25.80;92.50
52397;DHT22;38322;53.108;6.308;2023-06-10T13:16:10;25.90;93.50
52397;DHT22;38322;53.108;6.308;2023-06-10T13:18:35;25.70;92.30
52397;DHT22;38322;53.108;6.308;2023-06-10T13:21:04;25.80;93.00
52397;DHT22;38322;53.108;6.308;2023-06-10T13:23:30;26.00;92.60
52397;DHT22;38322;53.108;6.308;2023-06-10T13:25:57;26.00;92.90
52397;DHT22;38322;53.108;6.308;2023-06-10T13:28:23;26.00;91.60
52397;DHT22;38322;53.108;6.308;2023-06-10T13:30:49;26.00;91.60
52397;DHT22;38322;53.108;6.308;2023-06-10T13:33:15;26.10;92.20
52397;DHT22;38322;53.108;6.308;2023-06-10T13:35:41;26.20;93.30
52397;DHT22;38322;53.108;6.308;2023-06-10T13:38:07;26.20;92.80
52397;DHT22;38322;53.108;6.308;2023-06-10T13:40:33;26.20;92.50
52397;DHT22;38322;53.108;6.308;2023-06-10T13:42:59;26.30;93.00
52397;DHT22;38322;53.108;6.308;2023-06-10T13:45:25;26.30;94.10
52397;DHT22;38322;53.108;6.308;2023-06-10T13:47:51;26.30;93.40
52397;DHT22;38322;53.108;6.308;2023-06-10T13:50:17;26.20;93.60
52397;DHT22;38322;53.108;6.308;2023-06-10T13:52:43;26.40;94.30
52397;DHT22;38322;53.108;6.308;2023-06-10T13:55:09;26.40;93.50
52397;DHT22;38322;53.108;6.308;2023-06-10T13:57:35;26.40;93.50
52397;DHT22;38322;53.108;6.308;2023-06-10T14:00:01;26.40;93.80
52397;DHT22;38322;53.108;6.308;2023-06-10T14:02:27;26.60;94.50
52397;DHT22;38322;53.108;6.308;2023-06-10T14:04:53;26.50;94.10
52397;DHT22;38322;53.108;6.308;2023-06-10T14:07:18;26.50;92.60
52397;DHT22;38322;53.108;6.308;2023-06-10T14:09:44;26.60;91.70
52397;DHT22;38322;53.108;6.308;2023-06-10T14:12:10;26.80;93.40
52397;DHT22;38322;53.108;6.308;2023-06-10T14:14:36;26.90;94.00
52397;DHT22;38322;53.108;6.308;2023-06-10T14:17:02;27.00;92.80
52397;DHT22;38322;53.108;6.308;2023-06-10T14:19:30;27.00;93.40
52397;DHT22;38322;53.108;6.308;2023-06-10T14:21:56;27.00;93.90
52397;DHT22;38322;53.108;6.308;2023-06-10T14:24:22;27.00;90.80
52397;DHT22;38322;53.108;6.308;2023-06-10T14:26:47;27.00;89.30
52397;DHT22;38322;53.108;6.308;2023-06-10T14:29:13;27.10;90.20
52397;DHT22;38322;53.108;6.308;2023-06-10T14:31:40;27.10;89.40
52397;DHT22;38322;53.108;6.308;2023-06-10T14:34:06;27.10;87.70
52397;DHT22;38322;53.108;6.308;2023-06-10T14:36:34;27.20;87.50
52397;DHT22;38322;53.108;6.308;2023-06-10T14:39:00;27.30;88.60
52397;DHT22;38322;53.108;6.308;2023-06-10T14:41:26;27.20;89.40
52397;DHT22;38322;53.108;6.308;2023-06-10T14:43:52;27.20;88.80
52397;DHT22;38322;53.108;6.308;2023-06-10T14:46:18;27.40;90.00
52397;DHT22;38322;53.108;6.308;2023-06-10T14:48:46;27.40;89.40
52397;DHT22;38322;53.108;6.308;2023-06-10T14:51:12;27.40;90.10
52397;DHT22;38322;53.108;6.308;2023-06-10T14:53:38;27.50;89.80
52397;DHT22;38322;53.108;6.308;2023-06-10T14:56:04;27.30;89.10
52397;DHT22;38322;53.108;6.308;2023-06-10T14:58:30;27.30;90.00
52397;DHT22;38322;53.108;6.308;2023-06-10T15:00:56;27.40;90.10
52397;DHT22;38322;53.108;6.308;2023-06-10T15:03:22;27.50;90.10
52397;DHT22;38322;53.108;6.308;2023-06-10T15:05:48;27.40;90.30
52397;DHT22;38322;53.108;6.308;2023-06-10T15:08:14;27.50;90.20
52397;DHT22;38322;53.108;6.308;2023-06-10T15:10:40;27.30;89.40
52397;DHT22;38322;53.108;6.308;2023-06-10T15:13:06;27.30;89.30
52397;DHT22;38322;53.108;6.308;2023-06-10T15:15:31;27.30;90.10
52397;DHT22;38322;53.108;6.308;2023-06-10T15:17:57;27.30;90.20
52397;DHT22;38322;53.108;6.308;2023-06-10T15:20:23;27.40;90.40
52397;DHT22;38322;53.108;6.308;2023-06-10T15:22:49;27.50;90.20
52397;DHT22;38322;53.108;6.308;2023-06-10T15:25:16;27.50;90.20
52397;DHT22;38322;53.108;6.308;2023-06-10T15:27:42;27.60;90.70
52397;DHT22;38322;53.108;6.308;2023-06-10T15:30:08;27.70;91.00
52397;DHT22;38322;53.108;6.308;2023-06-10T15:32:34;27.80;91.30
52397;DHT22;38322;53.108;6.308;2023-06-10T15:35:00;27.80;91.10
52397;DHT22;38322;53.108;6.308;2023-06-10T15:37:26;27.80;91.20
52397;DHT22;38322;53.108;6.308;2023-06-10T15:39:51;27.80;91.10
52397;DHT22;38322;53.108;6.308;2023-06-10T15:42:17;27.90;90.70
52397;DHT22;38322;53.108;6.308;2023-06-10T15:44:43;28.00;90.70
52397;DHT22;38322;53.108;6.308;2023-06-10T15:47:09;28.40;90.70
52397;DHT22;38322;53.108;6.308;2023-06-10T15:49:35;28.30;90.20
52397;DHT22;38322;53.108;6.308;2023-06-10T15:52:01;28.20;90.10
52397;DHT22;38322;53.108;6.308;2023-06-10T15:54:27;28.10;90.20
52397;DHT22;38322;53.108;6.308;2023-06-10T15:56:53;28.20;90.20
52397;DHT22;38322;53.108;6.308;2023-06-10T15:59:18;28.20;90.20
52397;DHT22;38322;53.108;6.308;2023-06-10T16:01:44;28.20;90.20
52397;DHT22;38322;53.108;6.308;2023-06-10T16:04:10;28.30;88.10
52397;DHT22;38322;53.108;6.308;2023-06-10T16:06:36;28.40;88.80
52397;DHT22;38322;53.108;6.308;2023-06-10T16:09:02;28.50;88.20
52397;DHT22;38322;53.108;6.308;2023-06-10T16:11:28;28.50;88.50
52397;DHT22;38322;53.108;6.308;2023-06-10T16:13:54;28.60;88.40
52397;DHT22;38322;53.108;6.308;2023-06-10T16:16:20;28.60;88.80
52397;DHT22;38322;53.108;6.308;2023-06-10T16:18:45;28.60;88.10
52397;DHT22;38322;53.108;6.308;2023-06-10T16:21:11;28.60;87.70
52397;DHT22;38322;53.108;6.308;2023-06-10T16:23:37;28.50;87.30
52397;DHT22;38322;53.108;6.308;2023-06-10T16:26:04;28.60;86.30
52397;DHT22;38322;53.108;6.308;2023-06-10T16:28:30;28.50;86.10
52397;DHT22;38322;53.108;6.308;2023-06-10T16:30:56;28.60;86.40
52397;DHT22;38322;53.108;6.308;2023-06-10T16:33:22;28.60;85.90
52397;DHT22;38322;53.108;6.308;2023-06-10T16:35:48;28.70;86.50
52397;DHT22;38322;53.108;6.308;2023-06-10T16:38:14;28.80;86.20
52397;DHT22;38322;53.108;6.308;2023-06-10T16:40:40;29.00;86.00
52397;DHT22;38322;53.108;6.308;2023-06-10T16:43:06;29.00;86.40
52397;DHT22;38322;53.108;6.308;2023-06-10T16:45:32;29.10;86.30
52397;DHT22;38322;53.108;6.308;2023-06-10T16:47:58;29.10;85.50
52397;DHT22;38322;53.108;6.308;2023-06-10T16:50:24;29.10;84.80
52397;DHT22;38322;53.108;6.308;2023-06-10T16:52:50;29.10;84.20
52397;DHT22;38322;53.108;6.308;2023-06-10T16:55:15;29.10;84.30
52397;DHT22;38322;53.108;6.308;2023-06-10T16:57:41;29.10;84.50
52397;DHT22;38322;53.108;6.308;2023-06-10T17:00:08;29.10;84.10
52397;DHT22;38322;53.108;6.308;2023-06-10T17:02:33;29.10;83.30
52397;DHT22;38322;53.108;6.308;2023-06-10T17:04:59;29.10;83.50
52397;DHT22;38322;53.108;6.308;2023-06-10T17:07:25;29.10;82.50
52397;DHT22;38322;53.108;6.308;2023-06-10T17:09:51;29.10;82.50
52397;DHT22;38322;53.108;6.308;2023-06-10T17:12:17;29.00;82.00
52397;DHT22;38322;53.108;6.308;2023-06-10T17:14:43;29.00;81.80
52397;DHT22;38322;53.108;6.308;2023-06-10T17:17:09;29.10;81.70
52397;DHT22;38322;53.108;6.308;2023-06-10T17:19:35;29.10;81.90
52397;DHT22;38322;53.108;6.308;2023-06-10T17:22:01;29.20;82.40
52397;DHT22;38322;53.108;6.308;2023-06-10T17:24:27;29.30;81.50
52397;DHT22;38322;53.108;6.308;2023-06-10T17:26:53;29.40;81.90
52397;DHT22;38322;53.108;6.308;2023-06-10T17:29:19;29.40;80.90
52397;DHT22;38322;53.108;6.308;2023-06-10T17:31:44;29.30;81.00
52397;DHT22;38322;53.108;6.308;2023-06-10T17:34:10;29.20;80.20
52397;DHT22;38322;53.108;6.308;2023-06-10T17:36:36;29.20;80.50
52397;DHT22;38322;53.108;6.308;2023-06-10T17:39:02;29.30;81.00
52397;DHT22;38322;53.108;6.308;2023-06-10T17:41:28;29.40;84.50
52397;DHT22;38322;53.108;6.308;2023-06-10T17:43:54;29.50;88.90
52397;DHT22;38322;53.108;6.308;2023-06-10T17:46:20;29.50;90.50
52397;DHT22;38322;53.108;6.308;2023-06-10T17:48:46;29.50;91.10
52397;DHT22;38322;53.108;6.308;2023-06-10T17:51:13;29.40;91.60
52397;DHT22;38322;53.108;6.308;2023-06-10T17:53:38;29.20;91.70
52397;DHT22;38322;53.108;6.308;2023-06-10T17:56:05;29.00;91.50
52397;DHT22;38322;53.108;6.308;2023-06-10T17:58:30;28.80;91.70
52397;DHT22;38322;53.108;6.308;2023-06-10T18:00:56;28.40;92.00
52397;DHT22;38322;53.108;6.308;2023-06-10T18:03:25;27.80;92.90
52397;DHT22;38322;53.108;6.308;2023-06-10T18:05:53;27.20;93.70
52397;DHT22;38322;53.108;6.308;2023-06-10T18:08:20;26.60;94.50
52397;DHT22;38322;53.108;6.308;2023-06-10T18:10:46;25.90;95.60
52397;DHT22;38322;53.108;6.308;2023-06-10T18:13:13;25.50;96.30
52397;DHT22;38322;53.108;6.308;2023-06-10T18:15:38;25.10;97.30
52397;DHT22;38322;53.108;6.308;2023-06-10T18:18:05;24.70;97.80
52397;DHT22;38322;53.108;6.308;2023-06-10T18:20:31;24.50;98.50
52397;DHT22;38322;53.108;6.308;2023-06-10T18:22:57;24.20;99.00
52397;DHT22;38322;53.108;6.308;2023-06-10T18:25:23;24.10;99.30
52397;DHT22;38322;53.108;6.308;2023-06-10T18:27:49;23.90;99.60
52397;DHT22;38322;53.108;6.308;2023-06-10T18:30:15;23.80;99.90
52397;DHT22;38322;53.108;6.308;2023-06-10T18:32:41;23.60;99.90
52397;DHT22;38322;53.108;6.308;2023-06-10T18:35:07;23.50;99.90
52397;DHT22;38322;53.108;6.308;2023-06-10T18:37:33;23.30;99.90
52397;DHT22;38322;53.108;6.308;2023-06-10T18:39:59;23.20;99.90
52397;DHT22;38322;53.108;6.308;2023-06-10T18:42:25;23.00;99.90
52397;DHT22;38322;53.108;6.308;2023-06-10T18:44:51;22.90;99.90
52397;DHT22;38322;53.108;6.308;2023-06-10T18:47:17;22.80;99.90
52397;DHT22;38322;53.108;6.308;2023-06-10T18:49:43;22.70;99.90
52397;DHT22;38322;53.108;6.308;2023-06-10T18:52:10;22.60;99.90
52397;DHT22;38322;53.108;6.308;2023-06-10T18:54:36;22.50;99.90
52397;DHT22;38322;53.108;6.308;2023-06-10T18:57:02;22.40;99.90
52397;DHT22;38322;53.108;6.308;2023-06-10T18:59:28;22.30;99.90
52397;DHT22;38322;53.108;6.308;2023-06-10T19:01:54;22.20;99.90
52397;DHT22;38322;53.108;6.308;2023-06-10T19:04:20;22.10;99.90
52397;DHT22;38322;53.108;6.308;2023-06-10T19:06:45;22.00;99.90
52397;DHT22;38322;53.108;6.308;2023-06-10T19:09:13;21.90;99.90
52397;DHT22;38322;53.108;6.308;2023-06-10T19:11:39;21.80;99.90
52397;DHT22;38322;53.108;6.308;2023-06-10T19:14:04;21.70;99.90
52397;DHT22;38322;53.108;6.308;2023-06-10T19:16:32;21.60;99.90
52397;DHT22;38322;53.108;6.308;2023-06-10T19:18:58;21.50;99.90
52397;DHT22;38322;53.108;6.308;2023-06-10T19:21:24;21.50;99.90
52397;DHT22;38322;53.108;6.308;2023-06-10T19:23:50;21.30;99.90
52397;DHT22;38322;53.108;6.308;2023-06-10T19:26:16;21.20;99.90
52397;DHT22;38322;53.108;6.308;2023-06-10T19:28:42;21.10;99.90
52397;DHT22;38322;53.108;6.308;2023-06-10T19:31:08;21.00;99.90
52397;DHT22;38322;53.108;6.308;2023-06-10T19:33:34;21.00;99.90
52397;DHT22;38322;53.108;6.308;2023-06-10T19:35:59;20.80;99.90
52397;DHT22;38322;53.108;6.308;2023-06-10T19:38:25;20.70;99.90
52397;DHT22;38322;53.108;6.308;2023-06-10T19:40:51;20.60;99.90
52397;DHT22;38322;53.108;6.308;2023-06-10T19:43:17;20.50;99.90
52397;DHT22;38322;53.108;6.308;2023-06-10T19:45:43;20.40;99.90
52397;DHT22;38322;53.108;6.308;2023-06-10T19:48:09;20.30;99.90
52397;DHT22;38322;53.108;6.308;2023-06-10T19:50:35;20.20;99.90
52397;DHT22;38322;53.108;6.308;2023-06-10T19:53:01;20.20;99.90
52397;DHT22;38322;53.108;6.308;2023-06-10T19:55:26;20.00;99.90
52397;DHT22;38322;53.108;6.308;2023-06-10T19:57:52;19.90;99.90
